Time;durP1;ratioP1;P1;durP2;ratioP2;P2;SDS_P1;SDS_P2;PMS_P1;PMS_P2;Temp;Humidity;BMP_temperature;BMP_pressure;BME280_temperature;BME280_humidity;BME280_pressure;Samples;Min_cycle;Max_cycle;Signal;HPM_P1;HPM_P2
2023/05/08 00:01:07;;;;;;;;;12.50;12.50;;;;;;;;4994794;28;45300;-73
2023/05/08 00:03:33;;;;;;;;;15.75;13.75;;;;;;;;4993418;28;45510;-74
2023/05/08 00:05:58;;;;;;;;;15.00;13.75;;;;;;;;4995079;28;45444;-74
2023/05/08 00:08:23;;;;;;;;;12.25;11.75;;;;;;;;4994793;28;45394;-73
2023/05/08 00:10:49;;;;;;;;;12.50;12.50;;;;;;;;4992384;28;45396;-72
2023/05/08 00:13:14;;;;;;;;;11.25;10.75;;;;;;;;4992664;28;45443;-72
2023/05/08 00:15:39;;;;;;;;;8.50;8.50;;;;;;;;4993955;28;45380;-74
2023/05/08 00:18:04;;;;;;;;;14.75;13.50;;;;;;;;4990078;28;45922;-72
2023/05/08 00:20:30;;;;;;;;;16.25;14.00;;;;;;;;4994891;28;46165;-74
2023/05/08 00:22:56;;;;;;;;;19.75;13.75;;;;;;;;4992271;28;46095;-74
2023/05/08 00:25:21;;;;;;;;;16.00;14.75;;;;;;;;4992862;28;45460;-73
2023/05/08 00:27:47;;;;;;;;;9.25;9.25;;;;;;;;4992388;28;46252;-74
2023/05/08 00:30:12;;;;;;;;;11.50;10.25;;;;;;;;4987417;28;45507;-73
2023/05/08 00:32:37;;;;;;;;;15.00;14.25;;;;;;;;4991841;28;45419;-74
2023/05/08 00:35:03;;;;;;;;;12.00;10.25;;;;;;;;4995168;28;45477;-74
2023/05/08 00:37:28;;;;;;;;;13.50;13.50;;;;;;;;4993974;28;45435;-74
2023/05/08 00:39:53;;;;;;;;;14.00;13.00;;;;;;;;4977104;28;45546;-73
2023/05/08 00:42:18;;;;;;;;;12.50;12.50;;;;;;;;4991847;28;45510;-73
2023/05/08 00:44:44;;;;;;;;;14.50;13.75;;;;;;;;4994133;28;45468;-73
2023/05/08 00:47:09;;;;;;;;;16.25;13.50;;;;;;;;4990489;28;46270;-73
2023/05/08 00:49:35;;;;;;;;;13.75;12.75;;;;;;;;4994574;28;45523;-73
2023/05/08 00:52:01;;;;;;;;;12.50;12.50;;;;;;;;4994496;28;45435;-73
2023/05/08 00:54:26;;;;;;;;;15.00;13.75;;;;;;;;4994793;28;45475;-74
2023/05/08 00:56:52;;;;;;;;;13.50;11.50;;;;;;;;4993701;28;45338;-74
2023/05/08 00:59:19;;;;;;;;;13.00;13.00;;;;;;;;4994520;28;45401;-73
2023/05/08 01:01:46;;;;;;;;;17.00;15.50;;;;;;;;4980528;28;45476;-73
2023/05/08 01:04:11;;;;;;;;;12.50;11.75;;;;;;;;4990774;28;45525;-72
2023/05/08 01:06:36;;;;;;;;;12.75;12.75;;;;;;;;4993904;28;47176;-74
2023/05/08 01:09:02;;;;;;;;;14.00;13.50;;;;;;;;4994859;28;45496;-72
2023/05/08 01:11:43;;;;;;;;;18.75;17.25;;;;;;;;4985182;28;45404;-74
2023/05/08 01:14:14;;;;;;;;;15.50;15.25;;;;;;;;4978964;28;45602;-72
2023/05/08 01:16:45;;;;;;;;;17.25;14.25;;;;;;;;4993620;28;45511;-72
2023/05/08 01:19:20;;;;;;;;;16.25;16.25;;;;;;;;4993774;28;45414;-72
2023/05/08 01:21:52;;;;;;;;;15.75;15.50;;;;;;;;4976991;28;45484;-72
2023/05/08 01:24:30;;;;;;;;;16.00;16.00;;;;;;;;4987220;28;45462;-72
2023/05/08 01:27:04;;;;;;;;;12.25;12.00;;;;;;;;4984548;28;47057;-72
2023/05/08 01:29:49;;;;;;;;;20.50;16.00;;;;;;;;4991508;28;45561;-71
2023/05/08 01:32:18;;;;;;;;;16.50;15.50;;;;;;;;4942335;28;45542;-72
2023/05/08 01:35:02;;;;;;;;;16.75;16.00;;;;;;;;4972042;28;45524;-72
2023/05/08 01:37:48;;;;;;;;;15.25;15.00;;;;;;;;4963801;28;45528;-72
2023/05/08 01:40:20;;;;;;;;;16.75;14.00;;;;;;;;4952307;28;46260;-73
2023/05/08 01:42:52;;;;;;;;;16.00;14.50;;;;;;;;4970850;28;45514;-73
2023/05/08 01:45:23;;;;;;;;;17.00;14.75;;;;;;;;4970986;28;45476;-72
2023/05/08 01:47:55;;;;;;;;;17.00;15.25;;;;;;;;4971369;28;45519;-73
2023/05/08 01:50:23;;;;;;;;;14.75;13.50;;;;;;;;4965372;28;45552;-72
2023/05/08 01:52:50;;;;;;;;;16.25;14.25;;;;;;;;4961563;28;45474;-73
2023/05/08 01:55:19;;;;;;;;;16.00;15.25;;;;;;;;4968487;28;45429;-72
2023/05/08 01:57:49;;;;;;;;;18.00;17.50;;;;;;;;4955757;28;48854;-73
2023/05/08 02:00:17;;;;;;;;;18.50;17.75;;;;;;;;4964431;28;45411;-72
2023/05/08 02:02:43;;;;;;;;;14.25;14.25;;;;;;;;4974367;28;45474;-73
2023/05/08 02:05:08;;;;;;;;;19.25;17.25;;;;;;;;4974281;28;45491;-72
2023/05/08 02:07:36;;;;;;;;;15.00;15.00;;;;;;;;4973589;28;45946;-71
2023/05/08 02:10:03;;;;;;;;;15.00;13.25;;;;;;;;4980059;28;45447;-70
2023/05/08 02:12:29;;;;;;;;;17.00;16.25;;;;;;;;4987372;28;45433;-70
2023/05/08 02:14:55;;;;;;;;;13.25;12.25;;;;;;;;4988975;28;45587;-71
2023/05/08 02:17:20;;;;;;;;;18.75;15.75;;;;;;;;4994787;28;46878;-73
2023/05/08 02:19:46;;;;;;;;;17.75;16.75;;;;;;;;4994750;28;45408;-72
2023/05/08 02:22:12;;;;;;;;;20.00;17.00;;;;;;;;4981401;28;45607;-72
2023/05/08 02:24:38;;;;;;;;;17.25;14.75;;;;;;;;4986930;28;45546;-73
2023/05/08 02:27:04;;;;;;;;;18.25;17.25;;;;;;;;4988924;28;46251;-72
2023/05/08 02:29:30;;;;;;;;;19.75;17.50;;;;;;;;4988381;28;45494;-71
2023/05/08 02:31:56;;;;;;;;;13.50;12.50;;;;;;;;4980048;28;45741;-72
2023/05/08 02:34:22;;;;;;;;;21.25;18.00;;;;;;;;4996452;28;45506;-70
2023/05/08 02:36:49;;;;;;;;;16.00;14.25;;;;;;;;4986285;28;45400;-71
2023/05/08 02:39:16;;;;;;;;;17.75;16.50;;;;;;;;4990798;28;45468;-71
2023/05/08 02:41:42;;;;;;;;;12.75;12.25;;;;;;;;4994517;28;45469;-70
2023/05/08 02:44:07;;;;;;;;;14.50;13.75;;;;;;;;4990307;28;45439;-71
2023/05/08 02:46:40;;;;;;;;;18.75;16.00;;;;;;;;4981086;28;46241;-71
2023/05/08 02:49:08;;;;;;;;;16.00;13.75;;;;;;;;4986687;28;45446;-71
2023/05/08 02:51:36;;;;;;;;;16.50;13.75;;;;;;;;4991171;28;45515;-71
2023/05/08 02:54:16;;;;;;;;;16.75;15.00;;;;;;;;4996028;28;45542;-71
2023/05/08 02:57:11;;;;;;;;;15.25;15.25;;;;;;;;4992446;28;45490;-72
2023/05/08 02:59:38;;;;;;;;;20.25;14.25;;;;;;;;4986880;28;45609;-71
2023/05/08 03:02:07;;;;;;;;;15.75;13.50;;;;;;;;4995276;28;45368;-71
2023/05/08 03:04:35;;;;;;;;;18.00;14.50;;;;;;;;4995245;28;45602;-71
2023/05/08 03:07:01;;;;;;;;;16.50;15.75;;;;;;;;4992339;28;47269;-71
2023/05/08 03:09:30;;;;;;;;;17.25;17.25;;;;;;;;4992372;28;45518;-72
2023/05/08 03:12:05;;;;;;;;;14.75;14.00;;;;;;;;4991416;28;45412;-72
2023/05/08 03:14:33;;;;;;;;;15.75;14.25;;;;;;;;4994092;28;45415;-72
2023/05/08 03:16:59;;;;;;;;;18.50;16.50;;;;;;;;4995413;28;46692;-72
2023/05/08 03:19:32;;;;;;;;;15.25;15.25;;;;;;;;4993118;28;45399;-72
2023/05/08 03:21:58;;;;;;;;;19.50;15.50;;;;;;;;4993270;28;45521;-73
2023/05/08 03:24:24;;;;;;;;;17.25;17.25;;;;;;;;4995485;28;45499;-72
2023/05/08 03:26:49;;;;;;;;;17.25;14.75;;;;;;;;4994107;28;47514;-72
2023/05/08 03:29:15;;;;;;;;;16.50;16.25;;;;;;;;4988667;28;45517;-73
2023/05/08 03:31:41;;;;;;;;;17.25;16.00;;;;;;;;4990003;28;45553;-72
2023/05/08 03:34:07;;;;;;;;;14.75;13.25;;;;;;;;4983116;28;45740;-71
2023/05/08 03:36:33;;;;;;;;;14.00;13.25;;;;;;;;4991222;28;45359;-71
2023/05/08 03:38:58;;;;;;;;;17.50;17.00;;;;;;;;4981371;28;45463;-71
2023/05/08 03:41:24;;;;;;;;;15.25;14.25;;;;;;;;4992830;28;45536;-71
2023/05/08 03:43:49;;;;;;;;;13.75;13.75;;;;;;;;4995836;28;45430;-71
2023/05/08 03:46:15;;;;;;;;;14.25;14.00;;;;;;;;4995533;28;47054;-71
2023/05/08 03:48:41;;;;;;;;;19.75;16.00;;;;;;;;4979318;28;45348;-71
2023/05/08 03:51:06;;;;;;;;;15.50;14.00;;;;;;;;4976666;28;45428;-71
2023/05/08 03:53:32;;;;;;;;;13.75;13.75;;;;;;;;4990610;28;45395;-71
2023/05/08 03:55:58;;;;;;;;;12.25;12.25;;;;;;;;4996791;28;45402;-71
2023/05/08 03:58:26;;;;;;;;;13.50;13.50;;;;;;;;5000325;28;45623;-72
2023/05/08 04:00:51;;;;;;;;;22.25;17.25;;;;;;;;4990781;28;45504;-71
2023/05/08 04:03:20;;;;;;;;;19.25;17.50;;;;;;;;5012687;28;45319;-72
2023/05/08 04:06:04;;;;;;;;;14.75;13.75;;;;;;;;5008136;28;45640;-72
2023/05/08 04:08:33;;;;;;;;;11.50;11.50;;;;;;;;5002629;28;45371;-71
2023/05/08 04:11:25;;;;;;;;;16.25;13.50;;;;;;;;4988577;28;45478;-72
2023/05/08 04:13:53;;;;;;;;;19.00;16.25;;;;;;;;4991568;28;45575;-71
2023/05/08 04:16:25;;;;;;;;;20.75;18.25;;;;;;;;4990229;28;45498;-71
2023/05/08 04:18:55;;;;;;;;;18.25;16.25;;;;;;;;4995218;28;45516;-72
2023/05/08 04:21:23;;;;;;;;;16.50;16.50;;;;;;;;4995528;28;45440;-71
2023/05/08 04:23:49;;;;;;;;;15.75;14.50;;;;;;;;4975783;28;45408;-72
2023/05/08 04:26:15;;;;;;;;;18.50;16.75;;;;;;;;4975198;28;45313;-72
2023/05/08 04:28:41;;;;;;;;;18.75;17.25;;;;;;;;4982744;28;45425;-72
2023/05/08 04:31:07;;;;;;;;;12.00;12.00;;;;;;;;4995502;28;45277;-72
2023/05/08 04:33:33;;;;;;;;;16.50;15.75;;;;;;;;4994806;28;45445;-72
2023/05/08 04:36:00;;;;;;;;;15.50;14.50;;;;;;;;4993941;28;48109;-72
2023/05/08 04:38:25;;;;;;;;;13.25;13.00;;;;;;;;4992561;28;45438;-71
2023/05/08 04:40:50;;;;;;;;;12.25;12.25;;;;;;;;4994476;28;45288;-72
2023/05/08 04:43:15;;;;;;;;;12.25;12.00;;;;;;;;4994536;28;45528;-71
2023/05/08 04:45:41;;;;;;;;;15.00;15.00;;;;;;;;4994334;28;47146;-71
2023/05/08 04:48:06;;;;;;;;;15.75;15.50;;;;;;;;4995138;28;45354;-71
2023/05/08 04:50:31;;;;;;;;;13.00;11.75;;;;;;;;4994838;28;45554;-71
2023/05/08 04:52:56;;;;;;;;;12.50;12.50;;;;;;;;4994540;28;45430;-71
2023/05/08 04:55:21;;;;;;;;;16.75;13.25;;;;;;;;4994087;28;45450;-72
2023/05/08 04:57:47;;;;;;;;;13.75;13.75;;;;;;;;4994043;28;45353;-72
2023/05/08 05:00:12;;;;;;;;;13.25;11.50;;;;;;;;4994327;28;45510;-72
2023/05/08 05:02:37;;;;;;;;;13.00;11.00;;;;;;;;4974438;28;45534;-72
2023/05/08 05:05:03;;;;;;;;;13.75;13.00;;;;;;;;4984694;28;46196;-72
2023/05/08 05:07:28;;;;;;;;;14.00;11.25;;;;;;;;4993022;28;45462;-72
2023/05/08 05:09:53;;;;;;;;;14.00;13.00;;;;;;;;4994795;28;45356;-72
2023/05/08 05:12:18;;;;;;;;;16.25;16.25;;;;;;;;4995098;28;45536;-72
2023/05/08 05:14:44;;;;;;;;;13.00;10.75;;;;;;;;4994352;28;46432;-73
2023/05/08 05:17:09;;;;;;;;;16.75;16.75;;;;;;;;4994871;28;45339;-72
2023/05/08 05:19:34;;;;;;;;;15.75;14.00;;;;;;;;4995224;28;45367;-72
2023/05/08 05:21:59;;;;;;;;;11.25;11.25;;;;;;;;4994099;28;45291;-72
2023/05/08 05:24:24;;;;;;;;;12.50;12.50;;;;;;;;4994433;28;45316;-71
2023/05/08 05:26:50;;;;;;;;;15.25;13.75;;;;;;;;4994023;28;45488;-71
2023/05/08 05:29:15;;;;;;;;;16.00;15.50;;;;;;;;4993764;28;45501;-72
2023/05/08 05:31:41;;;;;;;;;12.75;10.75;;;;;;;;4994078;28;45514;-72
2023/05/08 05:34:06;;;;;;;;;20.00;18.00;;;;;;;;4995966;28;47210;-72
2023/05/08 05:36:31;;;;;;;;;16.00;13.50;;;;;;;;4997034;28;45379;-72
2023/05/08 05:38:57;;;;;;;;;12.75;11.00;;;;;;;;4997560;28;45387;-72
2023/05/08 05:41:23;;;;;;;;;14.25;13.75;;;;;;;;4996384;28;45430;-72
2023/05/08 05:43:48;;;;;;;;;16.25;13.50;;;;;;;;4996997;28;45697;-71
2023/05/08 05:46:13;;;;;;;;;11.50;11.00;;;;;;;;4997060;28;45463;-72
2023/05/08 05:48:38;;;;;;;;;11.25;11.25;;;;;;;;4997572;28;45398;-72
2023/05/08 05:51:03;;;;;;;;;6.00;6.00;;;;;;;;4997278;28;45399;-73
2023/05/08 05:53:29;;;;;;;;;14.00;12.50;;;;;;;;4996809;28;46056;-72
2023/05/08 05:55:54;;;;;;;;;17.25;14.00;;;;;;;;4997062;28;45399;-73
2023/05/08 05:58:19;;;;;;;;;13.50;13.00;;;;;;;;4996842;28;45598;-73
2023/05/08 06:00:46;;;;;;;;;12.25;11.00;;;;;;;;4996837;28;45511;-73
2023/05/08 06:03:11;;;;;;;;;15.50;12.25;;;;;;;;4996102;28;45506;-72
2023/05/08 06:05:36;;;;;;;;;18.25;16.25;;;;;;;;4997369;28;45475;-73
2023/05/08 06:08:02;;;;;;;;;16.50;14.75;;;;;;;;4997663;28;45335;-72
2023/05/08 06:10:27;;;;;;;;;15.75;15.00;;;;;;;;4997772;28;45512;-73
2023/05/08 06:12:53;;;;;;;;;17.00;15.75;;;;;;;;4995745;28;45437;-72
2023/05/08 06:15:18;;;;;;;;;21.50;17.25;;;;;;;;4996690;28;45368;-72
2023/05/08 06:17:43;;;;;;;;;18.50;14.75;;;;;;;;4996679;28;45395;-72
2023/05/08 06:20:09;;;;;;;;;15.00;14.00;;;;;;;;4997362;28;45356;-72
2023/05/08 06:22:36;;;;;;;;;15.00;15.00;;;;;;;;4996790;28;46108;-72
2023/05/08 06:25:02;;;;;;;;;19.75;17.00;;;;;;;;4996381;28;45456;-72
2023/05/08 06:27:27;;;;;;;;;17.00;16.00;;;;;;;;4996672;28;45423;-72
2023/05/08 06:29:52;;;;;;;;;19.00;17.50;;;;;;;;4996534;28;45335;-72
2023/05/08 06:32:20;;;;;;;;;13.50;11.25;;;;;;;;4996083;28;46426;-73
2023/05/08 06:34:46;;;;;;;;;13.25;13.25;;;;;;;;4996336;28;45374;-68
2023/05/08 06:37:11;;;;;;;;;13.00;11.00;;;;;;;;4996151;28;45375;-71
2023/05/08 06:39:36;;;;;;;;;12.00;11.25;;;;;;;;4996491;28;45579;-73
2023/05/08 06:42:03;;;;;;;;;12.00;12.00;;;;;;;;4996622;28;46228;-73
2023/05/08 06:44:29;;;;;;;;;17.00;16.50;;;;;;;;4993777;28;45404;-71
2023/05/08 06:46:54;;;;;;;;;12.00;12.00;;;;;;;;4994790;28;45388;-71
2023/05/08 06:49:19;;;;;;;;;12.75;12.75;;;;;;;;4996153;28;45448;-72
2023/05/08 06:51:44;;;;;;;;;14.75;12.50;;;;;;;;4996302;28;47223;-71
2023/05/08 06:54:10;;;;;;;;;16.00;14.25;;;;;;;;4995930;28;45309;-69
2023/05/08 06:56:35;;;;;;;;;18.75;15.00;;;;;;;;4994999;28;45406;-70
2023/05/08 06:59:00;;;;;;;;;19.50;15.75;;;;;;;;4987348;28;45421;-72
2023/05/08 07:01:25;;;;;;;;;14.50;13.75;;;;;;;;4995309;28;46143;-73
2023/05/08 07:03:51;;;;;;;;;14.25;14.25;;;;;;;;4995870;28;45455;-70
2023/05/08 07:06:16;;;;;;;;;15.00;15.00;;;;;;;;4991713;28;45618;-70
2023/05/08 07:08:41;;;;;;;;;12.50;11.50;;;;;;;;4992922;28;45431;-70
2023/05/08 07:11:08;;;;;;;;;11.00;11.00;;;;;;;;4996118;28;45427;-70
2023/05/08 07:13:34;;;;;;;;;16.25;13.50;;;;;;;;4995092;28;45524;-70
2023/05/08 07:15:59;;;;;;;;;13.50;12.75;;;;;;;;4993802;28;45567;-71
2023/05/08 07:18:24;;;;;;;;;13.75;11.75;;;;;;;;4978594;28;45502;-71
2023/05/08 07:20:50;;;;;;;;;10.75;10.75;;;;;;;;4983897;28;46216;-73
2023/05/08 07:23:15;;;;;;;;;16.00;14.50;;;;;;;;4995324;28;45459;-73
2023/05/08 07:25:40;;;;;;;;;13.00;12.75;;;;;;;;4992230;28;45625;-72
2023/05/08 07:28:06;;;;;;;;;12.00;12.00;;;;;;;;4990749;28;45462;-72
2023/05/08 07:30:32;;;;;;;;;14.00;13.00;;;;;;;;4989752;28;46599;-72
2023/05/08 07:32:57;;;;;;;;;10.75;9.50;;;;;;;;4990108;28;45296;-72
2023/05/08 07:35:22;;;;;;;;;11.00;11.00;;;;;;;;4976757;28;45700;-72
2023/05/08 07:37:48;;;;;;;;;12.50;11.50;;;;;;;;4982125;28;45484;-73
2023/05/08 07:40:13;;;;;;;;;11.25;9.75;;;;;;;;4991475;28;45409;-73
2023/05/08 07:42:39;;;;;;;;;11.25;11.25;;;;;;;;4995859;28;45541;-73
2023/05/08 07:45:04;;;;;;;;;12.25;12.25;;;;;;;;4987919;28;45602;-73
2023/05/08 07:47:29;;;;;;;;;15.75;12.00;;;;;;;;4986585;28;45387;-73
2023/05/08 07:49:55;;;;;;;;;13.75;13.50;;;;;;;;4981420;28;45403;-73
2023/05/08 07:52:20;;;;;;;;;13.00;11.75;;;;;;;;4992531;28;45392;-73
2023/05/08 07:54:46;;;;;;;;;12.25;10.00;;;;;;;;4989463;28;45555;-72
2023/05/08 07:57:11;;;;;;;;;11.50;11.50;;;;;;;;4991992;28;45499;-73
2023/05/08 07:59:37;;;;;;;;;11.75;11.00;;;;;;;;4994176;28;45445;-72
2023/05/08 08:02:02;;;;;;;;;13.00;13.00;;;;;;;;4979695;28;45535;-73
2023/05/08 08:04:27;;;;;;;;;17.25;14.50;;;;;;;;4993531;28;45390;-73
2023/05/08 08:06:52;;;;;;;;;17.50;16.25;;;;;;;;4988789;28;45428;-73
2023/05/08 08:09:18;;;;;;;;;12.25;10.75;;;;;;;;4982670;28;45901;-73
2023/05/08 08:11:43;;;;;;;;;13.75;12.00;;;;;;;;4994474;28;45536;-72
2023/05/08 08:14:08;;;;;;;;;14.50;13.50;;;;;;;;4976950;28;45552;-73
2023/05/08 08:16:33;;;;;;;;;14.25;13.75;;;;;;;;4994139;28;45550;-73
2023/05/08 08:18:58;;;;;;;;;14.25;14.25;;;;;;;;4984661;28;46394;-73
2023/05/08 08:21:23;;;;;;;;;15.00;11.50;;;;;;;;4983337;28;45811;-73
2023/05/08 08:23:49;;;;;;;;;12.00;11.50;;;;;;;;4994417;28;45434;-73
2023/05/08 08:26:14;;;;;;;;;16.25;11.75;;;;;;;;4978255;28;45422;-73
2023/05/08 08:28:39;;;;;;;;;15.50;14.50;;;;;;;;4994125;28;46162;-73
2023/05/08 08:31:04;;;;;;;;;16.00;13.75;;;;;;;;4994741;28;45441;-71
2023/05/08 08:33:30;;;;;;;;;15.00;14.75;;;;;;;;4991049;28;45459;-71
2023/05/08 08:35:55;;;;;;;;;14.25;12.50;;;;;;;;4994907;28;45466;-71
2023/05/08 08:38:20;;;;;;;;;17.00;16.25;;;;;;;;4977645;28;45506;-71
2023/05/08 08:40:46;;;;;;;;;15.00;15.00;;;;;;;;4990369;28;45431;-69
2023/05/08 08:43:11;;;;;;;;;15.50;13.75;;;;;;;;4983416;28;45442;-70
2023/05/08 08:45:37;;;;;;;;;14.50;13.00;;;;;;;;4994598;28;45433;-72
2023/05/08 08:48:02;;;;;;;;;11.50;10.75;;;;;;;;4979838;28;47084;-71
2023/05/08 08:50:31;;;;;;;;;15.00;14.25;;;;;;;;4991675;28;45488;-68
2023/05/08 08:53:07;;;;;;;;;13.25;13.00;;;;;;;;4981757;28;45487;-69
2023/05/08 08:55:35;;;;;;;;;9.50;9.50;;;;;;;;4987356;28;45459;-68
2023/05/08 08:58:19;;;;;;;;;10.75;10.50;;;;;;;;4994020;28;45457;-69
2023/05/08 09:00:44;;;;;;;;;11.50;10.50;;;;;;;;4979745;28;45397;-68
2023/05/08 09:03:10;;;;;;;;;15.50;12.00;;;;;;;;4995112;28;45470;-68
2023/05/08 09:05:35;;;;;;;;;11.00;10.00;;;;;;;;4983309;28;45479;-68
2023/05/08 09:08:01;;;;;;;;;8.75;8.75;;;;;;;;4992132;28;46001;-68
2023/05/08 09:10:26;;;;;;;;;12.50;10.50;;;;;;;;4995869;28;45440;-68
2023/05/08 09:12:52;;;;;;;;;11.25;11.25;;;;;;;;4983916;28;45669;-68
2023/05/08 09:15:18;;;;;;;;;12.50;11.00;;;;;;;;4996341;28;45394;-68
2023/05/08 09:17:43;;;;;;;;;14.75;12.75;;;;;;;;4997956;28;46044;-68
2023/05/08 09:20:08;;;;;;;;;11.00;11.00;;;;;;;;4985717;28;45371;-68
2023/05/08 09:22:37;;;;;;;;;14.00;14.00;;;;;;;;4994965;28;45391;-68
2023/05/08 09:25:03;;;;;;;;;13.25;11.25;;;;;;;;4985389;28;45428;-68
2023/05/08 09:27:28;;;;;;;;;11.25;11.25;;;;;;;;4987035;28;45481;-68
2023/05/08 09:30:04;;;;;;;;;17.25;15.75;;;;;;;;4992220;28;45438;-67
2023/05/08 09:32:31;;;;;;;;;19.00;17.00;;;;;;;;4995391;28;45428;-67
2023/05/08 09:34:56;;;;;;;;;12.50;11.75;;;;;;;;4984199;28;45335;-68
2023/05/08 09:37:22;;;;;;;;;11.75;11.00;;;;;;;;4987960;28;45859;-68
2023/05/08 09:39:47;;;;;;;;;12.00;10.75;;;;;;;;4989517;28;45407;-68
2023/05/08 09:42:12;;;;;;;;;9.75;9.75;;;;;;;;4997372;28;45453;-68
2023/05/08 09:44:48;;;;;;;;;12.50;12.50;;;;;;;;4980029;28;45330;-68
2023/05/08 09:47:14;;;;;;;;;10.00;8.50;;;;;;;;4987673;28;46290;-68
2023/05/08 09:49:59;;;;;;;;;12.50;8.50;;;;;;;;4988480;28;45385;-68
2023/05/08 09:52:25;;;;;;;;;10.50;9.50;;;;;;;;4994639;28;45340;-68
2023/05/08 09:55:00;;;;;;;;;8.33;8.33;;;;;;;;4992227;28;45458;-67
2023/05/08 09:57:27;;;;;;;;;12.50;12.00;;;;;;;;4996497;28;45624;-67
2023/05/08 10:00:11;;;;;;;;;9.75;9.25;;;;;;;;4993825;28;45537;-67
2023/05/08 10:02:37;;;;;;;;;9.50;9.00;;;;;;;;4993940;28;45419;-66
2023/05/08 10:05:04;;;;;;;;;9.25;8.25;;;;;;;;4997172;28;45560;-66
2023/05/08 10:07:31;;;;;;;;;11.00;10.25;;;;;;;;4987891;28;45662;-67
2023/05/08 10:09:56;;;;;;;;;8.33;8.33;;;;;;;;4991508;28;45320;-67
2023/05/08 10:12:22;;;;;;;;;8.33;5.67;;;;;;;;4995362;28;45482;-67
2023/05/08 10:14:47;;;;;;;;;7.67;7.67;;;;;;;;4981355;28;45477;-68
2023/05/08 10:17:13;;;;;;;;;12.33;10.00;;;;;;;;4992703;28;47093;-68
2023/05/08 10:19:40;;;;;;;;;8.33;7.00;;;;;;;;4983546;28;45390;-68
2023/05/08 10:22:10;;;;;;;;;11.33;10.00;;;;;;;;4992672;28;45446;-68
2023/05/08 10:24:38;;;;;;;;;7.33;6.00;;;;;;;;4980033;28;45412;-68
2023/05/08 10:27:08;;;;;;;;;5.67;5.67;;;;;;;;4989267;28;45435;-68
2023/05/08 10:29:40;;;;;;;;;7.67;7.33;;;;;;;;4986625;28;45396;-68
2023/05/08 10:32:08;;;;;;;;;7.25;7.25;;;;;;;;4996755;28;45300;-68
2023/05/08 10:34:34;;;;;;;;;11.25;11.00;;;;;;;;4980106;28;45626;-68
2023/05/08 10:37:00;;;;;;;;;13.50;11.25;;;;;;;;4990424;28;45500;-68
2023/05/08 10:39:26;;;;;;;;;8.75;8.00;;;;;;;;4985403;28;45435;-69
2023/05/08 10:41:51;;;;;;;;;8.50;7.75;;;;;;;;4995097;28;45391;-69
2023/05/08 10:44:18;;;;;;;;;28.25;27.25;;;;;;;;4988245;28;45493;-71
2023/05/08 10:46:55;;;;;;;;;9.50;9.50;;;;;;;;4995542;28;47142;-70
2023/05/08 10:49:39;;;;;;;;;13.25;11.25;;;;;;;;4992641;28;45356;-70
2023/05/08 10:52:10;;;;;;;;;10.25;10.25;;;;;;;;4988666;28;45375;-70
2023/05/08 10:54:38;;;;;;;;;9.75;9.50;;;;;;;;4992386;28;45442;-69
2023/05/08 10:57:10;;;;;;;;;12.00;11.00;;;;;;;;4991924;28;45355;-69
2023/05/08 10:59:38;;;;;;;;;8.00;6.75;;;;;;;;4991351;28;45543;-70
2023/05/08 11:02:05;;;;;;;;;9.67;9.67;;;;;;;;4992048;28;45495;-70
2023/05/08 11:04:31;;;;;;;;;7.33;6.67;;;;;;;;4990874;28;46223;-70
2023/05/08 11:06:57;;;;;;;;;12.00;9.50;;;;;;;;4991866;28;45517;-69
2023/05/08 11:09:41;;;;;;;;;8.50;7.50;;;;;;;;4974111;28;45512;-74
2023/05/08 11:12:07;;;;;;;;;9.50;7.25;;;;;;;;4992225;28;45474;-72
2023/05/08 11:14:34;;;;;;;;;8.00;7.50;;;;;;;;4992555;28;45607;-72
2023/05/08 11:17:00;;;;;;;;;8.67;8.00;;;;;;;;4994757;28;46088;-72
2023/05/08 11:19:25;;;;;;;;;6.80;6.20;;;;;;;;4994666;28;45488;-73
2023/05/08 11:22:10;;;;;;;;;5.25;5.25;;;;;;;;4994361;28;45411;-73
2023/05/08 11:24:35;;;;;;;;;7.25;6.00;;;;;;;;4993849;28;45632;-70
2023/05/08 11:27:00;;;;;;;;;6.75;5.50;;;;;;;;4993267;28;46997;-73
2023/05/08 11:29:26;;;;;;;;;7.50;7.25;;;;;;;;4993289;28;45457;-72
2023/05/08 11:31:51;;;;;;;;;5.00;5.00;;;;;;;;4994697;28;45343;-71
2023/05/08 11:34:35;;;;;;;;;10.00;9.33;;;;;;;;4993965;28;45412;-71
2023/05/08 11:37:03;;;;;;;;;8.00;8.00;;;;;;;;4993531;28;45751;-72
2023/05/08 11:39:28;;;;;;;;;12.00;10.33;;;;;;;;4989877;28;45439;-70
2023/05/08 11:41:53;;;;;;;;;9.00;8.00;;;;;;;;4993396;28;45470;-71
2023/05/08 11:44:19;;;;;;;;;7.00;6.00;;;;;;;;4993562;28;45506;-69
2023/05/08 11:46:52;;;;;;;;;8.75;8.00;;;;;;;;4992362;28;46866;-70
2023/05/08 11:49:18;;;;;;;;;8.25;7.25;;;;;;;;4993010;28;45298;-70
2023/05/08 11:51:44;;;;;;;;;8.00;8.00;;;;;;;;4995112;28;45308;-68
2023/05/08 11:54:14;;;;;;;;;10.50;9.25;;;;;;;;4995107;28;45742;-67
2023/05/08 11:56:39;;;;;;;;;7.00;6.50;;;;;;;;4994740;28;46328;-67
2023/05/08 11:59:05;;;;;;;;;7.25;7.25;;;;;;;;4994586;28;45559;-68
2023/05/08 12:01:31;;;;;;;;;13.00;10.25;;;;;;;;4995285;28;45489;-67
2023/05/08 12:04:00;;;;;;;;;8.25;7.00;;;;;;;;4995087;28;45497;-68
2023/05/08 12:06:26;;;;;;;;;7.75;6.75;;;;;;;;4994287;28;45563;-68
2023/05/08 12:08:51;;;;;;;;;9.00;7.00;;;;;;;;4995003;28;45443;-68
2023/05/08 12:11:21;;;;;;;;;6.00;6.00;;;;;;;;4995208;28;45373;-68
2023/05/08 12:13:49;;;;;;;;;7.00;7.00;;;;;;;;4994821;28;45312;-68
2023/05/08 12:16:15;;;;;;;;;6.50;5.50;;;;;;;;4994145;28;46235;-69
2023/05/08 12:18:41;;;;;;;;;5.50;5.50;;;;;;;;4994228;28;45397;-68
2023/05/08 12:21:06;;;;;;;;;5.00;5.00;;;;;;;;4993691;28;45395;-68
2023/05/08 12:23:31;;;;;;;;;6.50;5.50;;;;;;;;4994533;28;45559;-68
2023/05/08 12:26:00;;;;;;;;;5.00;5.00;;;;;;;;4994577;28;45399;-68
2023/05/08 12:28:26;;;;;;;;;6.33;6.33;;;;;;;;4994724;28;45375;-67
2023/05/08 12:30:51;;;;;;;;;8.00;6.00;;;;;;;;4994903;28;45363;-68
2023/05/08 12:33:17;;;;;;;;;8.33;7.00;;;;;;;;4995119;28;45386;-68
2023/05/08 12:35:43;;;;;;;;;5.50;5.00;;;;;;;;4994668;28;45530;-68
2023/05/08 12:38:09;;;;;;;;;5.75;5.75;;;;;;;;4994561;28;45417;-68
2023/05/08 12:40:38;;;;;;;;;4.00;4.00;;;;;;;;4994780;28;45391;-67
2023/05/08 12:43:04;;;;;;;;;4.33;4.33;;;;;;;;4994598;28;45422;-67
2023/05/08 12:45:34;;;;;;;;;5.00;4.67;;;;;;;;4994372;28;45754;-67
2023/05/08 12:48:00;;;;;;;;;5.33;5.00;;;;;;;;4994674;28;45333;-67
2023/05/08 12:50:26;;;;;;;;;4.75;2.75;;;;;;;;4994521;28;45264;-67
2023/05/08 12:52:51;;;;;;;;;3.00;3.00;;;;;;;;4994662;28;45576;-68
2023/05/08 12:55:24;;;;;;;;;5.25;5.25;;;;;;;;4994672;28;45400;-68
2023/05/08 12:57:57;;;;;;;;;4.67;4.67;;;;;;;;4994131;28;45342;-67
2023/05/08 13:00:22;;;;;;;;;6.00;6.00;;;;;;;;4994894;28;45451;-67
2023/05/08 13:02:54;;;;;;;;;5.00;5.00;;;;;;;;4994357;28;45432;-66
2023/05/08 13:05:20;;;;;;;;;4.00;3.00;;;;;;;;4994556;28;47356;-66
2023/05/08 13:07:45;;;;;;;;;4.25;3.00;;;;;;;;4976066;28;45407;-67
2023/05/08 13:10:10;;;;;;;;;5.25;4.00;;;;;;;;4994427;28;45623;-67
2023/05/08 13:12:36;;;;;;;;;3.00;3.00;;;;;;;;4992773;28;45652;-67
2023/05/08 13:15:03;;;;;;;;;3.75;3.75;;;;;;;;4993998;28;45857;-66
2023/05/08 13:17:28;;;;;;;;;4.33;4.33;;;;;;;;4994451;28;45443;-66
2023/05/08 13:19:53;;;;;;;;;5.75;5.75;;;;;;;;4993861;28;45338;-67
2023/05/08 13:22:21;;;;;;;;;3.00;2.00;;;;;;;;4993648;28;46335;-66
2023/05/08 13:24:47;;;;;;;;;3.00;3.00;;;;;;;;4992241;28;47708;-66
2023/05/08 13:27:12;;;;;;;;;5.00;4.00;;;;;;;;4993818;28;45550;-67
2023/05/08 13:29:37;;;;;;;;;3.75;3.50;;;;;;;;4993479;28;45434;-67
2023/05/08 13:32:03;;;;;;;;;2.00;1.00;;;;;;;;4993954;28;45436;-68
2023/05/08 13:34:28;;;;;;;;;5.00;3.33;;;;;;;;4993424;28;47030;-68
2023/05/08 13:36:53;;;;;;;;;4.00;4.00;;;;;;;;4994030;28;45442;-68
2023/05/08 13:39:18;;;;;;;;;2.25;2.25;;;;;;;;4993646;28;45383;-68
2023/05/08 13:41:44;;;;;;;;;4.00;4.00;;;;;;;;4993294;28;45621;-66
2023/05/08 13:44:09;;;;;;;;;2.00;2.00;;;;;;;;4993556;28;45371;-67
2023/05/08 13:46:34;;;;;;;;;2.33;2.33;;;;;;;;4993156;28;45574;-68
2023/05/08 13:49:00;;;;;;;;;2.67;2.67;;;;;;;;4994056;28;45444;-68
2023/05/08 13:51:25;;;;;;;;;3.00;3.00;;;;;;;;4993827;28;45331;-68
2023/05/08 13:53:50;;;;;;;;;1.00;1.00;;;;;;;;4994330;28;45628;-69
2023/05/08 13:56:15;;;;;;;;;3.00;3.00;;;;;;;;4996908;28;45581;-68
2023/05/08 13:58:41;;;;;;;;;11.50;11.00;;;;;;;;4996940;28;45449;-68
2023/05/08 14:01:06;;;;;;;;;2.67;2.67;;;;;;;;4996378;28;45482;-68
2023/05/08 14:03:31;;;;;;;;;2.00;2.00;;;;;;;;4995397;28;47039;-68
2023/05/08 14:05:56;;;;;;;;;3.00;2.33;;;;;;;;4996982;28;45537;-67
2023/05/08 14:08:21;;;;;;;;;3.00;1.67;;;;;;;;4997036;28;45265;-73
2023/05/08 14:10:46;;;;;;;;;6.75;6.75;;;;;;;;4995719;28;45612;-73
2023/05/08 14:13:12;;;;;;;;;4.00;2.00;;;;;;;;4995531;28;48063;-72
2023/05/08 14:15:37;;;;;;;;;4.00;4.00;;;;;;;;4997121;28;45348;-72
2023/05/08 14:18:02;;;;;;;;;3.00;3.00;;;;;;;;4995647;28;45342;-68
2023/05/08 14:20:28;;;;;;;;;3.33;2.67;;;;;;;;4997146;28;45527;-68
2023/05/08 14:22:53;;;;;;;;;13.25;9.25;;;;;;;;4995074;28;46230;-67